Time;durP1;ratioP1;P1;durP2;ratioP2;P2;SDS_P1;SDS_P2;PMS_P1;PMS_P2;Temp;Humidity;BMP_temperature;BMP_pressure;BME280_temperature;BME280_humidity;BME280_pressure;Samples;Min_cycle;Max_cycle;Signal;HPM_P1;HPM_P2
2022/02/13 00:02:03;;;;;;;20.20;8.85;;;;;;;-0.39;84.62;147577.22;1715094;83;21490;-66
2022/02/13 00:04:30;;;;;;;20.45;8.43;;;;;;;-0.40;84.54;147574.64;1710211;83;21088;-67
2022/02/13 00:06:57;;;;;;;24.43;9.28;;;;;;;-0.43;84.70;147566.94;1711193;83;21025;-67
2022/02/13 00:09:24;;;;;;;22.30;9.75;;;;;;;-0.45;84.75;147561.80;1690419;83;21025;-68
2022/02/13 00:11:50;;;;;;;29.23;10.30;;;;;;;-0.50;84.79;147550.20;1685639;83;21500;-66
2022/02/13 00:14:17;;;;;;;19.57;8.35;;;;;;;-0.54;84.89;147539.92;1686621;84;21045;-66
2022/02/13 00:16:44;;;;;;;28.12;10.68;;;;;;;-0.59;85.23;147528.33;1681475;84;21459;-66
2022/02/13 00:19:11;;;;;;;28.87;10.80;;;;;;;-0.63;85.33;147518.05;1742440;82;21047;-66
2022/02/13 00:21:38;;;;;;;26.90;10.85;;;;;;;-0.67;85.47;147507.77;1741763;82;21474;-66
2022/02/13 00:24:07;;;;;;;45.10;18.37;;;;;;;-0.69;85.62;147502.63;1720429;82;21051;-66
2022/02/13 00:26:35;;;;;;;51.33;19.17;;;;;;;-0.70;85.78;147500.06;1742141;82;20937;-67
2022/02/13 00:29:03;;;;;;;31.65;13.65;;;;;;;-0.71;85.85;147497.48;1732667;82;21024;-67
2022/02/13 00:31:30;;;;;;;40.43;16.55;;;;;;;-0.72;85.87;147494.91;1721625;82;21422;-67
2022/02/13 00:33:56;;;;;;;46.85;19.07;;;;;;;-0.75;85.90;147487.20;1742386;82;21040;-67
2022/02/13 00:36:23;;;;;;;70.70;28.15;;;;;;;-0.81;86.00;147473.05;1742575;82;22286;-66
2022/02/13 00:38:50;;;;;;;63.13;22.27;;;;;;;-0.84;86.22;147465.34;1742241;82;21464;-66
2022/02/13 00:41:18;;;;;;;47.95;20.97;;;;;;;-0.87;86.36;147457.63;1742207;81;21064;-66
2022/02/13 00:43:44;;;;;;;54.77;19.50;;;;;;;-0.88;86.62;147456.31;1742131;82;20995;-66
2022/02/13 00:46:11;;;;;;;58.92;22.73;;;;;;;-0.91;86.67;147448.59;1742702;82;21064;-66
2022/02/13 00:48:38;;;;;;;65.32;25.95;;;;;;;-0.93;86.86;147442.16;1742616;82;21097;-67
2022/02/13 00:51:04;;;;;;;74.17;27.48;;;;;;;-0.96;87.00;147435.75;1742572;82;21540;-67
2022/02/13 00:53:31;;;;;;;82.22;30.70;;;;;;;-0.99;87.22;147428.05;1742674;81;21750;-67
2022/02/13 00:55:58;;;;;;;55.43;19.75;;;;;;;-1.00;87.46;147425.44;1742024;82;21316;-67
2022/02/13 00:58:28;;;;;;;53.50;19.82;;;;;;;-1.02;87.60;147420.28;1742375;81;21071;-67
2022/02/13 01:00:55;;;;;;;54.95;19.60;;;;;;;-1.03;87.79;147417.72;1742029;82;21130;-66
2022/02/13 01:03:22;;;;;;;44.40;18.80;;;;;;;-1.03;87.88;147417.72;1742187;81;21015;-66
2022/02/13 01:05:49;;;;;;;49.83;17.75;;;;;;;-1.04;88.02;147415.16;1742834;82;21036;-67
2022/02/13 01:08:16;;;;;;;39.20;15.35;;;;;;;-1.04;88.13;147415.16;1742910;82;21112;-66
2022/02/13 01:10:43;;;;;;;37.08;14.40;;;;;;;-1.06;88.15;147410.02;1743689;80;21434;-66
2022/02/13 01:13:10;;;;;;;43.35;17.92;;;;;;;-1.07;88.30;147408.75;1742441;82;21048;-66
2022/02/13 01:15:37;;;;;;;39.38;15.48;;;;;;;-1.07;88.38;147407.44;1742989;82;21024;-66
2022/02/13 01:18:04;;;;;;;50.90;19.10;;;;;;;-1.07;88.43;147407.44;1742320;82;21015;-66
2022/02/13 01:20:32;;;;;;;53.80;20.65;;;;;;;-1.08;88.55;147404.88;1742988;82;21422;-66
2022/02/13 01:23:00;;;;;;;37.83;15.43;;;;;;;-1.11;88.69;147398.44;1742031;82;21102;-65
2022/02/13 01:25:27;;;;;;;35.68;12.37;;;;;;;-1.10;88.81;147401.05;1741863;82;21538;-67
2022/02/13 01:27:54;;;;;;;24.30;10.50;;;;;;;-1.12;88.92;147394.59;1741879;82;21068;-67
2022/02/13 01:30:21;;;;;;;28.02;10.78;;;;;;;-1.17;88.97;147384.31;1742639;80;21751;-67
2022/02/13 01:32:48;;;;;;;32.50;10.85;;;;;;;-1.21;89.11;147374.05;1742336;82;21040;-66
2022/02/13 01:35:14;;;;;;;39.33;14.95;;;;;;;-1.25;89.15;147363.72;1741862;82;21337;-61
2022/02/13 01:37:41;;;;;;;34.23;12.05;;;;;;;-1.28;89.21;147356.02;1741127;82;21367;-60
2022/02/13 01:40:09;;;;;;;25.62;10.18;;;;;;;-1.28;89.37;147354.75;1741804;81;21059;-60
2022/02/13 01:42:38;;;;;;;32.15;12.28;;;;;;;-1.29;89.50;147353.44;1742067;82;21454;-60
2022/02/13 01:45:06;;;;;;;27.07;11.22;;;;;;;-1.30;89.60;147350.88;1742131;81;21099;-61
2022/02/13 01:47:34;;;;;;;33.58;13.68;;;;;;;-1.31;89.74;147348.31;1742564;81;21067;-62
2022/02/13 01:50:02;;;;;;;35.43;12.07;;;;;;;-1.32;89.83;147347.05;1742740;82;21020;-60
2022/02/13 01:52:30;;;;;;;32.17;10.88;;;;;;;-1.32;89.95;147345.73;1713179;82;21071;-61
2022/02/13 01:54:58;;;;;;;29.87;10.48;;;;;;;-1.34;90.10;147341.86;1731016;82;21581;-61
2022/02/13 01:57:28;;;;;;;30.97;10.48;;;;;;;-1.35;90.14;147339.30;1745263;82;21517;-61
2022/02/13 01:59:55;;;;;;;23.80;8.80;;;;;;;-1.36;90.24;147336.72;1744161;82;21046;-61
2022/02/13 02:02:22;;;;;;;27.85;10.25;;;;;;;-1.39;90.36;147327.75;1742677;82;21150;-61
2022/02/13 02:04:52;;;;;;;31.73;12.13;;;;;;;-1.38;90.51;147331.58;1743030;82;21037;-61
2022/02/13 02:07:18;;;;;;;35.48;12.07;;;;;;;-1.36;90.76;147335.47;1742534;82;21099;-62
2022/02/13 02:09:48;;;;;;;29.18;10.88;;;;;;;-1.31;90.98;147348.31;1739539;81;21071;-61
2022/02/13 02:12:14;;;;;;;35.73;12.00;;;;;;;-1.30;90.87;147350.88;1713885;81;21059;-60
2022/02/13 02:14:42;;;;;;;34.45;12.03;;;;;;;-1.27;90.90;147358.58;1746568;81;21077;-62
2022/02/13 02:17:09;;;;;;;33.42;11.35;;;;;;;-1.26;90.97;147361.16;1743518;82;21528;-61
2022/02/13 02:19:36;;;;;;;28.05;9.90;;;;;;;-1.24;91.09;147366.28;1733019;82;21036;-62
2022/02/13 02:22:08;;;;;;;31.80;10.23;;;;;;;-1.22;91.14;147371.42;1743965;82;21541;-62
2022/02/13 02:24:34;;;;;;;31.45;10.08;;;;;;;-1.22;91.05;147371.42;1732620;82;21016;-62
2022/02/13 02:27:02;;;;;;;26.60;10.05;;;;;;;-1.25;90.91;147363.72;1739737;81;22318;-61
2022/02/13 02:29:29;;;;;;;30.37;10.38;;;;;;;-1.27;90.98;147358.58;1744811;82;21568;-61
2022/02/13 02:31:58;;;;;;;41.48;10.28;;;;;;;-1.30;91.06;147352.19;1744537;82;21042;-61
2022/02/13 02:34:24;;;;;;;32.83;10.08;;;;;;;-1.30;91.15;147350.88;1744798;81;21032;-68
2022/02/13 02:36:51;;;;;;;27.80;10.15;;;;;;;-1.30;91.21;147352.19;1743977;82;20968;-61
2022/02/13 02:39:17;;;;;;;31.75;9.83;;;;;;;-1.30;91.14;147350.88;1743685;82;21530;-61
2022/02/13 02:41:44;;;;;;;22.75;10.28;;;;;;;-1.31;91.18;147348.31;1744104;82;22294;-61
2022/02/13 02:44:11;;;;;;;20.48;8.85;;;;;;;-1.30;91.21;147350.88;1744283;82;21047;-61
2022/02/13 02:46:37;;;;;;;26.48;10.95;;;;;;;-1.32;91.33;147347.05;1745125;81;20952;-61
2022/02/13 02:49:04;;;;;;;29.85;10.13;;;;;;;-1.32;91.33;147345.73;1744655;82;21442;-61
2022/02/13 02:51:31;;;;;;;31.20;10.93;;;;;;;-1.34;91.26;147340.59;1745011;82;21116;-62
2022/02/13 02:53:57;;;;;;;26.85;10.32;;;;;;;-1.36;91.25;147336.72;1744408;80;21145;-61
2022/02/13 02:56:24;;;;;;;23.92;9.43;;;;;;;-1.38;91.29;147330.31;1744842;82;21000;-61
2022/02/13 02:58:51;;;;;;;21.23;9.08;;;;;;;-1.39;91.47;147329.02;1744592;82;20941;-63
2022/02/13 03:01:18;;;;;;;20.97;9.80;;;;;;;-1.39;91.45;147327.75;1744713;81;21500;-61
2022/02/13 03:03:44;;;;;;;24.57;10.28;;;;;;;-1.41;91.39;147322.63;1744478;82;21094;-64
2022/02/13 03:06:11;;;;;;;35.25;10.80;;;;;;;-1.42;91.34;147320.05;1744663;81;22041;-61
2022/02/13 03:08:39;;;;;;;26.50;10.20;;;;;;;-1.43;91.44;147317.48;1746030;81;21032;-62
2022/02/13 03:11:06;;;;;;;26.30;10.28;;;;;;;-1.45;91.59;147314.86;1734131;82;21055;-62
2022/02/13 03:13:32;;;;;;;28.70;10.90;;;;;;;-1.47;91.63;147309.72;1740043;82;20988;-62
2022/02/13 03:15:59;;;;;;;27.00;10.75;;;;;;;-1.47;91.69;147309.72;1682679;84;21133;-62
2022/02/13 03:18:26;;;;;;;27.37;10.32;;;;;;;-1.48;91.79;147307.16;1683299;84;21122;-61
2022/02/13 03:20:54;;;;;;;29.92;11.18;;;;;;;-1.48;91.87;147307.16;1703709;82;21164;-60
2022/02/13 03:23:20;;;;;;;28.73;10.88;;;;;;;-1.51;91.99;147299.45;1692111;83;21546;-61
2022/02/13 03:25:47;;;;;;;28.83;11.93;;;;;;;-1.55;91.96;147289.19;1739056;81;21091;-63
2022/02/13 03:28:14;;;;;;;32.38;12.55;;;;;;;-1.57;91.98;147282.73;1738165;82;21125;-62
2022/02/13 03:30:41;;;;;;;34.65;11.48;;;;;;;-1.59;92.02;147280.16;1740067;82;21056;-62
2022/02/13 03:33:08;;;;;;;29.75;10.28;;;;;;;-1.59;92.08;147278.91;1740435;82;20992;-61
2022/02/13 03:35:35;;;;;;;25.20;10.68;;;;;;;-1.61;92.09;147273.77;1739877;82;21536;-62
2022/02/13 03:38:03;;;;;;;24.00;10.05;;;;;;;-1.63;92.15;147269.89;1739714;82;21028;-62
2022/02/13 03:40:30;;;;;;;24.18;10.20;;;;;;;-1.66;92.18;147260.87;1739394;81;21189;-61
2022/02/13 03:42:57;;;;;;;28.30;11.48;;;;;;;-1.67;92.29;147258.31;1739591;82;21060;-61
2022/02/13 03:45:24;;;;;;;24.23;10.40;;;;;;;-1.69;92.48;147253.17;1739826;82;21078;-61
2022/02/13 03:47:50;;;;;;;24.52;11.05;;;;;;;-1.70;92.63;147250.61;1739022;81;21410;-62
2022/02/13 03:50:17;;;;;;;30.92;11.22;;;;;;;-1.71;92.70;147249.34;1739174;82;21067;-62
2022/02/13 03:52:44;;;;;;;33.95;10.93;;;;;;;-1.71;92.81;147249.34;1739396;82;21103;-62
2022/02/13 03:55:16;;;;;;;24.47;10.80;;;;;;;-1.73;92.88;147245.47;1739125;81;21148;-61
2022/02/13 03:57:43;;;;;;;25.23;10.55;;;;;;;-1.74;92.87;147241.64;1740994;81;21043;-62
2022/02/13 04:00:12;;;;;;;26.17;10.45;;;;;;;-1.78;92.89;147231.33;1739900;81;21068;-60
2022/02/13 04:02:40;;;;;;;35.30;11.83;;;;;;;-1.80;92.97;147227.50;1740206;81;21074;-62
2022/02/13 04:05:09;;;;;;;23.12;10.30;;;;;;;-1.81;93.07;147223.63;1740318;81;21691;-60
2022/02/13 04:07:41;;;;;;;22.45;10.53;;;;;;;-1.83;93.20;147219.80;1738979;82;21015;-61
2022/02/13 04:10:09;;;;;;;24.27;10.35;;;;;;;-1.87;93.30;147209.53;1744521;81;21504;-62
2022/02/13 04:12:37;;;;;;;26.00;10.58;;;;;;;-1.88;93.37;147206.91;1754599;81;21019;-60
2022/02/13 04:15:05;;;;;;;24.67;10.90;;;;;;;-1.90;93.49;147201.77;1752984;81;22135;-61
2022/02/13 04:17:32;;;;;;;22.65;10.10;;;;;;;-1.92;93.59;147196.64;1754028;81;21094;-62
2022/02/13 04:19:59;;;;;;;26.48;10.72;;;;;;;-1.95;93.75;147190.25;1754496;81;21124;-62
2022/02/13 04:22:25;;;;;;;33.35;10.48;;;;;;;-1.95;93.85;147188.94;1753804;81;21615;-62
2022/02/13 04:24:52;;;;;;;29.48;10.32;;;;;;;-1.97;93.96;147183.80;1753548;81;21051;-62
2022/02/13 04:27:19;;;;;;;33.28;10.88;;;;;;;-2.00;94.08;147177.34;1753290;81;21480;-62
2022/02/13 04:29:45;;;;;;;36.40;10.68;;;;;;;-2.01;94.19;147174.78;1714666;82;21115;-62
2022/02/13 04:32:12;;;;;;;31.02;10.72;;;;;;;-2.04;94.40;147168.39;1709833;83;21542;-61
2022/02/13 04:34:40;;;;;;;23.95;10.55;;;;;;;-2.05;94.47;147165.83;1714903;83;21005;-62
2022/02/13 04:37:07;;;;;;;27.95;11.83;;;;;;;-2.06;94.61;147161.95;1715302;83;20953;-62
2022/02/13 04:39:33;;;;;;;31.25;11.38;;;;;;;-2.06;94.74;147161.95;1684883;85;21064;-63
2022/02/13 04:42:00;;;;;;;26.68;11.48;;;;;;;-2.09;94.75;147155.56;1691973;82;21773;-62
2022/02/13 04:44:27;;;;;;;23.75;11.03;;;;;;;-2.12;94.88;147147.81;1666427;85;21077;-61
2022/02/13 04:46:53;;;;;;;25.80;10.48;;;;;;;-2.14;95.04;147142.67;1714961;83;20989;-62
2022/02/13 04:49:20;;;;;;;28.23;11.45;;;;;;;-2.17;95.28;147134.97;1710167;83;21049;-62
2022/02/13 04:51:46;;;;;;;28.25;10.50;;;;;;;-2.17;95.52;147134.97;1686693;84;21079;-60
2022/02/13 04:54:13;;;;;;;30.35;11.90;;;;;;;-2.17;95.62;147134.97;1710352;83;21808;-61
2022/02/13 04:56:41;;;;;;;30.37;13.10;;;;;;;-2.18;95.73;147132.41;1686754;84;21032;-62
2022/02/13 04:59:09;;;;;;;27.95;11.03;;;;;;;-2.18;95.88;147132.41;1709635;83;21037;-63
2022/02/13 05:01:36;;;;;;;31.55;11.83;;;;;;;-2.19;95.99;147129.84;1714897;83;21338;-61
2022/02/13 05:04:04;;;;;;;28.92;12.13;;;;;;;-2.22;95.94;147123.41;1684171;84;21120;-66
2022/02/13 05:06:31;;;;;;;31.57;11.88;;;;;;;-2.23;96.02;147119.56;1715654;83;21759;-65
2022/02/13 05:08:58;;;;;;;31.62;12.35;;;;;;;-2.24;96.04;147117.00;1707825;83;21080;-66
2022/02/13 05:11:27;;;;;;;30.02;10.75;;;;;;;-2.24;96.13;147117.00;1689081;83;21140;-61
2022/02/13 05:13:55;;;;;;;32.48;11.73;;;;;;;-2.21;96.24;147124.70;1686348;83;20906;-65
2022/02/13 05:16:22;;;;;;;26.33;11.35;;;;;;;-2.17;96.34;147134.97;1742462;82;21078;-66
2022/02/13 05:18:49;;;;;;;30.10;11.73;;;;;;;-2.04;96.51;147168.39;1742300;82;21316;-65
2022/02/13 05:21:16;;;;;;;26.17;10.90;;;;;;;-1.82;96.67;147222.36;1742137;82;21080;-66
2022/02/13 05:23:43;;;;;;;25.72;12.15;;;;;;;-1.42;96.95;147320.05;1742247;81;21079;-66
2022/02/13 05:26:12;;;;;;;33.70;12.90;;;;;;;-1.03;96.51;147417.72;1742345;82;20957;-66
2022/02/13 05:28:40;;;;;;;31.65;12.18;;;;;;;-0.80;95.30;147474.31;1742708;82;21363;-65
2022/02/13 05:31:07;;;;;;;34.23;11.22;;;;;;;-0.80;93.79;147474.31;1742734;82;21541;-66
2022/02/13 05:33:34;;;;;;;23.80;11.73;;;;;;;-0.90;92.85;147451.17;1742229;82;20996;-66
2022/02/13 05:36:01;;;;;;;37.15;12.50;;;;;;;-0.99;92.47;147428.05;1742397;82;21173;-66
2022/02/13 05:38:28;;;;;;;29.80;11.80;;;;;;;-1.07;92.26;147408.75;1741674;82;21553;-66
2022/02/13 05:40:54;;;;;;;34.20;12.60;;;;;;;-1.16;92.12;147386.89;1741520;82;21013;-66
2022/02/13 05:43:21;;;;;;;42.30;12.82;;;;;;;-1.20;92.17;147375.30;1740679;81;21216;-67
2022/02/13 05:45:48;;;;;;;33.35;12.15;;;;;;;-1.20;92.30;147376.61;1742249;82;21068;-67
2022/02/13 05:48:15;;;;;;;33.98;15.05;;;;;;;-1.17;92.33;147383.02;1746777;82;21062;-65
2022/02/13 05:50:43;;;;;;;42.58;18.12;;;;;;;-1.15;92.27;147388.16;1741943;82;21075;-65
2022/02/13 05:53:10;;;;;;;56.42;27.20;;;;;;;-1.09;92.30;147402.31;1741789;80;21095;-67
2022/02/13 05:55:37;;;;;;;61.80;30.10;;;;;;;-1.04;92.06;147415.16;1742306;81;21812;-66
2022/02/13 05:58:04;;;;;;;57.60;30.72;;;;;;;-1.01;91.95;147422.86;1742165;80;21056;-66
2022/02/13 06:00:32;;;;;;;39.73;20.15;;;;;;;-0.97;91.80;147433.19;1742506;82;21032;-66
2022/02/13 06:02:59;;;;;;;44.95;17.37;;;;;;;-0.95;91.87;147438.33;1742040;81;21092;-66
2022/02/13 06:05:25;;;;;;;35.52;16.50;;;;;;;-0.88;92.20;147455.06;1741362;82;21039;-66
2022/02/13 06:07:52;;;;;;;44.23;14.55;;;;;;;-0.79;92.29;147476.88;1742276;82;21878;-65
2022/02/13 06:10:20;;;;;;;39.08;14.93;;;;;;;-0.70;92.31;147500.06;1741917;80;21043;-65
2022/02/13 06:12:48;;;;;;;43.63;14.80;;;;;;;-0.61;92.09;147523.19;1743663;82;21048;-65
2022/02/13 06:15:16;;;;;;;35.03;13.53;;;;;;;-0.55;91.79;147537.34;1744330;82;21067;-67
2022/02/13 06:17:42;;;;;;;40.65;13.93;;;;;;;-0.48;91.54;147555.34;1744750;80;21020;-66
2022/02/13 06:20:10;;;;;;;27.50;12.30;;;;;;;-0.42;91.42;147569.50;1744851;81;21755;-66
2022/02/13 06:22:37;;;;;;;30.20;11.68;;;;;;;-0.36;91.28;147584.94;1744824;82;21676;-66
2022/02/13 06:25:05;;;;;;;22.98;9.73;;;;;;;-0.29;91.21;147601.66;1744218;82;21016;-66
2022/02/13 06:27:32;;;;;;;32.95;11.55;;;;;;;-0.23;91.35;147617.09;1744839;82;21016;-66
2022/02/13 06:29:58;;;;;;;29.48;11.20;;;;;;;-0.12;91.63;147644.13;1744685;82;21493;-65
2022/02/13 06:32:25;;;;;;;36.23;10.95;;;;;;;-0.03;91.76;147667.31;1744932;82;21828;-67
2022/02/13 06:34:52;;;;;;;42.93;13.18;;;;;;;0.07;91.49;147690.45;1745288;80;20929;-66
2022/02/13 06:37:18;;;;;;;29.92;12.00;;;;;;;0.12;91.50;147703.36;1743758;82;21059;-67
2022/02/13 06:39:45;;;;;;;35.00;12.53;;;;;;;0.20;91.60;147723.94;1744522;82;21079;-66
2022/02/13 06:42:12;;;;;;;34.58;11.55;;;;;;;0.33;91.55;147754.81;1720427;82;21055;-66
2022/02/13 06:44:39;;;;;;;45.08;13.68;;;;;;;0.43;91.25;147781.84;1745846;81;21131;-65
2022/02/13 06:47:06;;;;;;;52.65;13.35;;;;;;;0.46;90.76;147788.30;1743847;82;21023;-66
2022/02/13 06:49:33;;;;;;;50.65;14.80;;;;;;;0.51;90.84;147801.16;1744473;81;21549;-66
2022/02/13 06:52:00;;;;;;;39.20;13.35;;;;;;;0.59;90.58;147819.22;1743731;82;21028;-66
2022/02/13 06:54:27;;;;;;;43.65;12.90;;;;;;;0.66;90.60;147837.23;1744132;82;21075;-65
2022/02/13 06:56:54;;;;;;;28.50;12.47;;;;;;;0.74;90.65;147857.81;1744029;82;21127;-67
2022/02/13 06:59:22;;;;;;;23.40;10.75;;;;;;;0.84;90.87;147883.59;1744011;82;21529;-66
2022/02/13 07:01:48;;;;;;;24.92;10.95;;;;;;;0.93;91.30;147904.19;1744407;82;21055;-66
2022/02/13 07:04:14;;;;;;;24.47;9.68;;;;;;;1.07;92.00;147938.95;1743131;82;21055;-66
2022/02/13 07:06:42;;;;;;;19.15;9.25;;;;;;;1.19;92.61;147968.59;1744373;82;21032;-66
2022/02/13 07:09:09;;;;;;;23.15;11.10;;;;;;;1.29;92.99;147994.38;1743637;82;21122;-66
2022/02/13 07:11:36;;;;;;;26.30;11.00;;;;;;;1.39;93.29;148020.13;1725965;81;22169;-66
2022/02/13 07:14:03;;;;;;;26.42;11.22;;;;;;;1.51;93.37;148049.75;1743373;82;21407;-66
2022/02/13 07:16:30;;;;;;;21.17;10.43;;;;;;;1.60;93.38;148070.41;1743511;82;21091;-62
2022/02/13 07:18:57;;;;;;;25.08;9.95;;;;;;;1.69;93.35;148094.89;1742830;81;21047;-66
2022/02/13 07:21:24;;;;;;;22.98;9.88;;;;;;;1.78;93.55;148115.50;1741448;82;21174;-66
2022/02/13 07:23:51;;;;;;;21.17;8.45;;;;;;;1.89;93.81;148142.56;1743645;82;20985;-68
2022/02/13 07:26:18;;;;;;;20.10;8.05;;;;;;;2.00;94.09;148170.94;1678557;83;21561;-65
2022/02/13 07:29:00;;;;;;;20.40;8.73;;;;;;;2.11;94.20;148198.02;1744400;80;21001;-66
2022/02/13 07:31:31;;;;;;;21.57;9.15;;;;;;;2.19;94.09;148217.31;1744538;82;21036;-68
2022/02/13 07:33:58;;;;;;;18.25;8.08;;;;;;;2.23;94.10;148228.94;1744909;81;21133;-66
2022/02/13 07:36:24;;;;;;;15.55;7.83;;;;;;;2.28;94.23;148241.81;1743738;81;21063;-66
2022/02/13 07:38:51;;;;;;;17.00;7.50;;;;;;;2.34;94.20;148254.75;1744540;82;21017;-66
2022/02/13 07:41:18;;;;;;;14.33;6.72;;;;;;;2.40;94.20;148270.20;1743973;82;21051;-67
2022/02/13 07:43:45;;;;;;;12.47;5.92;;;;;;;2.48;94.02;148290.83;1744536;82;21051;-66
2022/02/13 07:46:11;;;;;;;14.25;5.92;;;;;;;2.53;93.65;148303.70;1744568;82;21482;-67
2022/02/13 07:48:40;;;;;;;17.32;6.35;;;;;;;2.58;93.39;148315.33;1749214;81;21008;-66
2022/02/13 07:51:09;;;;;;;15.05;5.78;;;;;;;2.64;92.97;148329.53;1746485;80;21055;-66
2022/02/13 07:53:37;;;;;;;9.15;5.33;;;;;;;2.70;92.69;148345.00;1743617;82;21521;-66
2022/02/13 07:56:05;;;;;;;14.35;5.80;;;;;;;2.78;92.32;148364.34;1744645;82;21533;-67
2022/02/13 07:58:32;;;;;;;13.93;5.42;;;;;;;2.90;91.90;148394.02;1745076;82;21112;-66
2022/02/13 08:01:03;;;;;;;16.10;5.37;;;;;;;2.97;91.19;148412.06;1746076;81;21485;-66
2022/02/13 08:03:32;;;;;;;9.50;5.05;;;;;;;3.04;90.71;148430.16;1744951;82;21036;-66
2022/02/13 08:06:00;;;;;;;13.25;5.65;;;;;;;3.09;90.19;148443.05;1745343;82;21020;-65
2022/02/13 08:08:28;;;;;;;11.12;5.10;;;;;;;3.12;89.53;148450.78;1713828;82;21079;-66
2022/02/13 08:10:58;;;;;;;13.90;5.47;;;;;;;3.13;89.21;148453.36;1756534;80;21494;-68
2022/02/13 08:13:26;;;;;;;14.33;5.95;;;;;;;3.16;89.12;148459.83;1742531;81;21206;-67
2022/02/13 08:15:53;;;;;;;14.03;5.90;;;;;;;3.22;89.10;148474.03;1744700;82;21497;-66
2022/02/13 08:18:20;;;;;;;13.15;5.92;;;;;;;3.27;88.93;148486.94;1747850;82;21111;-66
2022/02/13 08:20:48;;;;;;;12.93;5.97;;;;;;;3.27;88.52;148486.94;1743691;80;21019;-66
2022/02/13 08:23:14;;;;;;;13.08;5.35;;;;;;;3.25;88.34;148481.77;1742423;80;21554;-66
2022/02/13 08:25:42;;;;;;;17.95;6.15;;;;;;;3.21;88.26;148471.47;1742803;82;21201;-66
2022/02/13 08:28:11;;;;;;;16.82;5.25;;;;;;;3.18;88.51;148464.98;1742637;81;21057;-66
2022/02/13 08:30:37;;;;;;;10.82;5.72;;;;;;;3.21;88.70;148471.47;1744782;82;21280;-66
2022/02/13 08:33:03;;;;;;;10.10;5.37;;;;;;;3.26;88.83;148484.34;1742225;82;21055;-66
2022/02/13 08:35:31;;;;;;;17.65;5.90;;;;;;;3.35;88.95;148506.30;1742291;81;20924;-66
2022/02/13 08:38:00;;;;;;;11.78;5.65;;;;;;;3.44;88.75;148529.50;1742609;81;21032;-67
2022/02/13 08:40:28;;;;;;;13.58;6.10;;;;;;;3.49;88.32;148542.41;1742494;82;21063;-67
2022/02/13 08:42:55;;;;;;;23.40;6.95;;;;;;;3.53;88.12;148551.45;1742110;82;21521;-67
2022/02/13 08:45:22;;;;;;;14.00;5.87;;;;;;;3.53;88.04;148551.45;1742016;82;21096;-67
2022/02/13 08:47:48;;;;;;;10.00;5.47;;;;;;;3.55;88.00;148557.92;1742138;82;21843;-67
2022/02/13 08:50:15;;;;;;;16.57;6.42;;;;;;;3.58;87.87;148564.34;1720491;80;21024;-67
2022/02/13 08:52:43;;;;;;;17.92;5.47;;;;;;;3.55;87.66;148556.61;1742906;81;20992;-67
2022/02/13 08:55:13;;;;;;;11.78;4.80;;;;;;;3.51;87.69;148546.28;1742130;82;21467;-67
2022/02/13 08:57:38;;;;;;;13.38;5.65;;;;;;;3.51;87.69;148546.28;1742320;81;21032;-62
2022/02/13 09:00:07;;;;;;;17.35;6.20;;;;;;;3.52;88.04;148548.87;1742203;82;21540;-65
2022/02/13 09:02:34;;;;;;;10.43;5.35;;;;;;;3.53;88.18;148551.45;1742345;82;21011;-68
2022/02/13 09:05:02;;;;;;;19.00;5.67;;;;;;;3.58;88.15;148564.34;1742352;81;21039;-66
2022/02/13 09:07:29;;;;;;;19.37;5.70;;;;;;;3.61;88.05;148570.81;1742347;82;21028;-66
2022/02/13 09:09:56;;;;;;;15.45;5.60;;;;;;;3.64;88.11;148579.81;1739736;82;21079;-67
2022/02/13 09:12:25;;;;;;;13.45;5.28;;;;;;;3.71;87.88;148597.92;1743221;82;21531;-68
2022/02/13 09:14:52;;;;;;;11.10;5.55;;;;;;;3.76;87.54;148609.56;1744703;81;20987;-68
2022/02/13 09:17:18;;;;;;;11.73;4.70;;;;;;;3.84;87.02;148628.88;1743142;82;21055;-67
2022/02/13 09:19:45;;;;;;;11.45;4.35;;;;;;;3.94;86.21;148654.73;1743617;82;21052;-67
2022/02/13 09:22:11;;;;;;;8.40;4.65;;;;;;;4.01;85.74;148672.78;1743282;80;21528;-66
2022/02/13 09:24:38;;;;;;;8.88;4.47;;;;;;;4.09;85.23;148692.16;1744563;82;21036;-68
2022/02/13 09:27:05;;;;;;;13.43;5.40;;;;;;;4.15;84.54;148707.66;1744721;82;21260;-67
2022/02/13 09:29:32;;;;;;;8.40;4.37;;;;;;;4.21;84.08;148720.59;1744536;82;21027;-67
2022/02/13 09:31:58;;;;;;;17.02;4.85;;;;;;;4.23;82.87;148727.03;1744249;82;21643;-67
2022/02/13 09:34:28;;;;;;;12.50;4.90;;;;;;;4.23;82.87;148727.03;1744437;82;21016;-67
2022/02/13 09:36:54;;;;;;;10.08;4.33;;;;;;;4.27;82.99;148737.34;1744887;81;21355;-67
2022/02/13 09:39:25;;;;;;;12.80;5.37;;;;;;;4.29;82.41;148742.50;1744767;82;21556;-67
2022/02/13 09:41:51;;;;;;;10.70;4.83;;;;;;;4.29;82.11;148742.50;1744769;82;20988;-67
2022/02/13 09:44:19;;;;;;;13.08;5.42;;;;;;;4.30;82.14;148745.09;1744729;82;21114;-67
2022/02/13 09:46:46;;;;;;;13.43;5.08;;;;;;;4.36;81.44;148758.05;1745212;82;21461;-67
2022/02/13 09:49:15;;;;;;;14.58;4.83;;;;;;;4.36;81.44;148758.05;1744532;82;21334;-67
2022/02/13 09:51:41;;;;;;;10.23;4.85;;;;;;;4.38;81.24;148763.20;1713358;82;21032;-67
2022/02/13 09:54:08;;;;;;;13.08;4.65;;;;;;;4.43;81.33;148776.11;1715043;83;21695;-67
2022/02/13 09:56:36;;;;;;;9.25;4.78;;;;;;;4.46;80.96;148783.84;1685009;83;21790;-68
2022/02/13 09:59:04;;;;;;;10.23;4.95;;;;;;;4.52;80.92;148799.34;1734818;82;35567;-69
2022/02/13 10:01:36;;;;;;;11.57;5.33;;;;;;;4.56;80.52;148809.72;1740520;82;21134;-67
2022/02/13 10:04:04;;;;;;;10.95;4.80;;;;;;;4.55;80.31;148807.13;1745125;82;21063;-67
2022/02/13 10:06:31;;;;;;;11.55;4.97;;;;;;;4.51;80.30;148795.50;1744110;81;20995;-61
2022/02/13 10:08:57;;;;;;;13.53;5.30;;;;;;;4.48;80.43;148789.02;1744440;80;21048;-61
2022/02/13 10:11:35;;;;;;;8.80;4.80;;;;;;;4.49;80.69;148791.59;1726830;82;21036;-61
2022/02/13 10:14:15;;;;;;;15.15;6.50;;;;;;;4.47;80.58;148786.44;1742318;82;21060;-61
2022/02/13 10:16:45;;;;;;;10.32;5.03;;;;;;;4.47;80.58;148786.44;1740070;82;21036;-62
2022/02/13 10:19:19;;;;;;;11.73;5.55;;;;;;;4.43;80.59;148776.11;1740383;82;21063;-62
2022/02/13 10:21:57;;;;;;;14.60;5.92;;;;;;;4.39;80.82;148765.78;1741663;80;21493;-61
2022/02/13 10:24:40;;;;;;;12.70;5.20;;;;;;;4.35;81.12;148755.47;1741338;82;21075;-62
2022/02/13 10:27:13;;;;;;;11.88;5.00;;;;;;;4.35;81.12;148755.47;1721063;82;21203;-61
2022/02/13 10:29:43;;;;;;;12.63;5.40;;;;;;;4.33;81.17;148750.30;1742414;81;21368;-62
2022/02/13 10:32:25;;;;;;;11.75;5.42;;;;;;;4.36;81.46;148759.31;1742061;82;21494;-63
2022/02/13 10:35:10;;;;;;;13.68;5.83;;;;;;;4.43;81.57;148776.11;1741836;82;21059;-67
2022/02/13 10:37:45;;;;;;;;;;;;;;;4.47;81.21;148786.44;1744617;82;21123;-67
2022/02/13 10:40:24;;;;;;;14.18;6.40;;;;;;;4.49;81.11;148791.59;1742062;81;20938;-67
2022/02/13 10:43:04;;;;;;;13.90;5.80;;;;;;;4.50;81.06;148794.17;1742332;81;21454;-66
2022/02/13 10:45:33;;;;;;;10.35;5.53;;;;;;;4.48;81.26;148789.02;1742125;81;21019;-66
2022/02/13 10:48:02;;;;;;;12.90;5.72;;;;;;;4.48;81.24;148787.75;1742543;82;21023;-66
2022/02/13 10:50:35;;;;;;;15.60;6.47;;;;;;;4.48;81.24;148787.75;1742141;82;21083;-67
2022/02/13 10:53:04;;;;;;;13.88;6.53;;;;;;;4.39;81.34;148765.78;1742652;82;20956;-67
2022/02/13 10:55:34;;;;;;;12.58;6.37;;;;;;;4.39;81.34;148765.78;1742148;81;21079;-68
2022/02/13 10:58:00;;;;;;;9.33;5.42;;;;;;;4.35;81.19;148755.47;1742661;81;21019;-67
2022/02/13 11:00:29;;;;;;;18.35;6.92;;;;;;;4.26;81.28;148734.77;1742306;81;21084;-67
2022/02/13 11:02:55;;;;;;;14.53;6.80;;;;;;;4.12;81.63;148698.64;1741930;82;20996;-67
2022/02/13 11:05:26;;;;;;;15.80;5.85;;;;;;;4.10;81.60;148693.48;1741867;82;21128;-67
2022/02/13 11:07:52;;;;;;;12.82;6.17;;;;;;;4.10;81.60;148693.48;1742454;81;21075;-67
2022/02/13 11:10:28;;;;;;;15.63;5.87;;;;;;;4.10;81.12;148693.48;1760040;80;21107;-62
2022/02/13 11:12:57;;;;;;;10.15;5.45;;;;;;;4.07;80.96;148687.00;1737464;80;20997;-68
2022/02/13 11:15:29;;;;;;;14.70;6.00;;;;;;;3.99;80.82;148667.63;1721138;82;21501;-68
2022/02/13 11:18:03;;;;;;;11.70;5.75;;;;;;;3.93;80.86;148652.16;1741790;81;21101;-67
2022/02/13 11:20:30;;;;;;;13.60;5.72;;;;;;;3.85;80.97;148632.78;1741709;82;21031;-66